createdAt,value
2022-11-23T00:00:12.087Z,99182.81
2022-11-23T00:00:34.070Z,99179.28
2022-11-23T00:00:55.696Z,99184.53
2022-11-23T00:01:20.526Z,99185.34
2022-11-23T00:01:42.120Z,99185.25
2022-11-23T00:02:03.851Z,99179.84
2022-11-23T00:02:25.513Z,99176.97
2022-11-23T00:02:48.142Z,99176.97
2022-11-23T00:03:14.666Z,99180.41
2022-11-23T00:03:36.304Z,99181.13
2022-11-23T00:04:00.927Z,99182.84
2022-11-23T00:04:24.925Z,99175.38
2022-11-23T00:04:46.563Z,99184.53
2022-11-23T00:05:08.842Z,99175.56
2022-11-23T00:05:31.189Z,99178.22
2022-11-23T00:05:53.850Z,99179.63
2022-11-23T00:06:16.255Z,99174.31
2022-11-23T00:06:38.397Z,99182.13
2022-11-23T00:07:00.970Z,99183.94
2022-11-23T00:07:22.623Z,99176.03
2022-11-23T00:07:44.335Z,99182.84
2022-11-23T00:08:06.340Z,99174.13
2022-11-23T00:08:27.914Z,99185.44
2022-11-23T00:08:51.357Z,99180.09
2022-11-23T00:09:13.004Z,99177.44
2022-11-23T00:09:34.571Z,99190.53
2022-11-23T00:09:56.161Z,99185.22
2022-11-23T00:10:18.406Z,99189.59
2022-11-23T00:10:40.983Z,99184.28
2022-11-23T00:11:02.691Z,99187.69
2022-11-23T00:11:25.688Z,99190.38
2022-11-23T00:11:48.243Z,99185.78
2022-11-23T00:12:09.951Z,99183.97
2022-11-23T00:12:33.243Z,99190.16
2022-11-23T00:12:54.857Z,99185.91
2022-11-23T00:13:16.455Z,99191.16
2022-11-23T00:13:40.474Z,99182.28
2022-11-23T00:14:02.429Z,99188.19
2022-11-23T00:14:24.089Z,99183.63
2022-11-23T00:14:45.683Z,99188.00
2022-11-23T00:15:09.007Z,99183.53
2022-11-23T00:15:30.630Z,99184.47
2022-11-23T00:15:52.276Z,99187.88
2022-11-23T00:16:15.650Z,99186.06
2022-11-23T00:16:38.346Z,99185.22
2022-11-23T00:17:00.106Z,99187.16
2022-11-23T00:17:21.864Z,99185.03
2022-11-23T00:17:43.475Z,99186.72
2022-11-23T00:18:05.417Z,99184.81
2022-11-23T00:18:27.282Z,99184.91
2022-11-23T00:18:51.345Z,99188.25
2022-11-23T00:19:12.918Z,99184.06
2022-11-23T00:19:34.623Z,99190.53
2022-11-23T00:19:56.267Z,99186.19
2022-11-23T00:20:18.928Z,99183.31
2022-11-23T00:20:40.652Z,99190.06
2022-11-23T00:21:06.748Z,99187.41
2022-11-23T00:21:30.830Z,99193.47
2022-11-23T00:21:52.415Z,99183.66
2022-11-23T00:22:13.986Z,99188.03
2022-11-23T00:22:35.875Z,99190.16
2022-11-23T00:22:57.546Z,99190.78
2022-11-23T00:23:20.075Z,99199.66
2022-11-23T00:23:42.631Z,99186.72
2022-11-23T00:24:04.918Z,99195.56
2022-11-23T00:24:27.514Z,99196.56
2022-11-23T00:24:49.302Z,99195.69
2022-11-23T00:25:10.927Z,99192.03
2022-11-23T00:25:32.486Z,99199.94
2022-11-23T00:25:54.078Z,99197.38
2022-11-23T00:26:17.815Z,99187.78
2022-11-23T00:26:39.444Z,99194.63
2022-11-23T00:27:01.067Z,99191.97
2022-11-23T00:27:22.732Z,99192.91
2022-11-23T00:27:46.594Z,99193.75
2022-11-23T00:28:08.193Z,99193.66
2022-11-23T00:28:30.054Z,99195.69
2022-11-23T00:28:52.812Z,99197.38
2022-11-23T00:29:14.450Z,99197.38
2022-11-23T00:29:36.049Z,99193.75
2022-11-23T00:29:57.670Z,99200.94
2022-11-23T00:30:20.228Z,99196.47
2022-11-23T00:30:42.765Z,99194.56
2022-11-23T00:31:04.678Z,99180.59
2022-11-23T00:31:26.315Z,99192.94
2022-11-23T00:31:47.959Z,99191.16
2022-11-23T00:32:10.551Z,99195.81
2022-11-23T00:32:32.335Z,99195.56
2022-11-23T00:32:54.772Z,99192.81
2022-11-23T00:33:16.508Z,99206.00
2022-11-23T00:33:38.220Z,99187.38
2022-11-23T00:34:00.839Z,99197.63
2022-11-23T00:34:22.681Z,99195.72
2022-11-23T00:34:45.858Z,99200.00
2022-11-23T00:35:08.210Z,99198.19
2022-11-23T00:35:30.747Z,99192.59
2022-11-23T00:35:59.499Z,99193.25
2022-11-23T00:36:22.226Z,99200.28
2022-11-23T00:36:44.857Z,99201.78
2022-11-23T00:37:06.523Z,99190.78
2022-11-23T00:37:28.193Z,99196.69
2022-11-23T00:37:49.871Z,99200.94
2022-11-23T00:38:11.580Z,99196.28
2022-11-23T00:38:34.486Z,99206.72
2022-11-23T00:38:57.615Z,99202.66
2022-11-23T00:39:19.338Z,99204.38
2022-11-23T00:39:41.951Z,99201.63
2022-11-23T00:40:04.341Z,99193.53
2022-11-23T00:40:25.946Z,99199.44
2022-11-23T00:40:47.571Z,99195.53
2022-11-23T00:41:12.217Z,99206.94
2022-11-23T00:41:34.779Z,99209.59
2022-11-23T00:41:57.384Z,99210.34
2022-11-23T00:42:19.029Z,99192.88
2022-11-23T00:42:40.642Z,99195.31
2022-11-23T00:43:03.714Z,99207.50
2022-11-23T00:43:27.010Z,99201.50
2022-11-23T00:43:48.922Z,99206.38
2022-11-23T00:44:10.804Z,99203.81
2022-11-23T00:44:32.418Z,99198.78
2022-11-23T00:44:54.995Z,99199.34
2022-11-23T00:45:16.892Z,99207.50
2022-11-23T00:45:38.484Z,99196.28
2022-11-23T00:46:07.990Z,99196.97
2022-11-23T00:46:30.593Z,99206.56
2022-11-23T00:46:52.215Z,99209.22
2022-11-23T00:47:15.275Z,99200.88
2022-11-23T00:47:37.229Z,99198.00
2022-11-23T00:48:00.076Z,99197.94
2022-11-23T00:48:22.646Z,99199.06
2022-11-23T00:48:47.873Z,99208.66
2022-11-23T00:49:10.012Z,99201.44
2022-11-23T00:49:31.892Z,99196.13
2022-11-23T00:49:54.651Z,99202.56
2022-11-23T00:50:16.908Z,99196.16
2022-11-23T00:50:38.470Z,99200.41
2022-11-23T00:51:00.863Z,99198.38
2022-11-23T00:51:26.490Z,99203.38
2022-11-23T00:51:48.162Z,99203.06
2022-11-23T00:52:09.760Z,99203.72
2022-11-23T00:52:31.484Z,99198.31
2022-11-23T00:52:53.095Z,99201.75
2022-11-23T00:53:15.650Z,99207.72
2022-11-23T00:53:37.988Z,99201.44
2022-11-23T00:54:00.664Z,99202.09
2022-11-23T00:54:22.257Z,99208.94
2022-11-23T00:54:44.841Z,99205.09
2022-11-23T00:55:07.209Z,99206.72
2022-11-23T00:55:28.812Z,99204.84
2022-11-23T00:55:51.711Z,99207.13
2022-11-23T00:56:15.046Z,99205.88
2022-11-23T00:56:36.630Z,99204.94
2022-11-23T00:56:58.243Z,99205.88
2022-11-23T00:57:20.660Z,99205.78
2022-11-23T00:57:42.241Z,99211.00
2022-11-23T00:58:06.240Z,99210.16
2022-11-23T00:58:28.639Z,99212.53
2022-11-23T00:58:50.750Z,99215.66
2022-11-23T00:59:13.552Z,99203.97
2022-11-23T00:59:35.122Z,99209.19
2022-11-23T00:59:56.710Z,99209.09
2022-11-23T01:00:20.045Z,99209.97
2022-11-23T01:00:41.698Z,99209.00
2022-11-23T01:01:06.860Z,99211.47
2022-11-23T01:01:33.612Z,99210.59
2022-11-23T01:01:55.430Z,99207.63
2022-11-23T01:02:17.095Z,99208.41
2022-11-23T01:02:39.681Z,99205.75
2022-11-23T01:03:01.324Z,99205.75
2022-11-23T01:03:23.518Z,99209.34
2022-11-23T01:03:49.592Z,99205.75
2022-11-23T01:04:11.263Z,99206.59
2022-11-23T01:04:32.949Z,99211.25
2022-11-23T01:04:54.796Z,99212.97
2022-11-23T01:05:16.432Z,99214.69
2022-11-23T01:05:39.551Z,99208.59
2022-11-23T01:06:09.437Z,99208.50
2022-11-23T01:06:32.864Z,99214.69
2022-11-23T01:06:57.268Z,99211.06
2022-11-23T01:07:18.913Z,99219.91
2022-11-23T01:07:40.556Z,99215.44
2022-11-23T01:08:02.799Z,99218.13
2022-11-23T01:08:25.765Z,99216.03
2022-11-23T01:08:50.713Z,99217.00
2022-11-23T01:09:14.596Z,99215.19
2022-11-23T01:09:36.188Z,99211.75
2022-11-23T01:09:57.896Z,99218.69
2022-11-23T01:10:19.475Z,99208.78
2022-11-23T01:10:42.062Z,99214.13
2022-11-23T01:11:05.973Z,99206.66
2022-11-23T01:11:31.283Z,99223.56
2022-11-23T01:11:53.711Z,99215.38
2022-11-23T01:12:22.019Z,99221.56
2022-11-23T01:12:43.612Z,99227.66
2022-11-23T01:13:06.614Z,99217.38
2022-11-23T01:13:28.608Z,99222.72
2022-11-23T01:13:51.274Z,99213.09
2022-11-23T01:14:13.253Z,99215.66
2022-11-23T01:14:35.200Z,99221.75
2022-11-23T01:14:59.640Z,99226.16
2022-11-23T01:15:23.749Z,99217.72
2022-11-23T01:15:50.638Z,99220.94
2022-11-23T01:16:22.261Z,99221.69
2022-11-23T01:16:46.458Z,99225.19
2022-11-23T01:17:08.057Z,99223.41
2022-11-23T01:17:29.937Z,99216.47
2022-11-23T01:17:51.579Z,99224.03
2022-11-23T01:18:14.194Z,99222.16
2022-11-23T01:18:35.819Z,99226.53
2022-11-23T01:18:59.510Z,99222.06
2022-11-23T01:19:21.348Z,99223.97
2022-11-23T01:19:44.381Z,99218.72
2022-11-23T01:20:10.373Z,99218.41
2022-11-23T01:20:34.836Z,99219.50
2022-11-23T01:20:56.444Z,99220.81
2022-11-23T01:21:18.015Z,99219.97
2022-11-23T01:21:40.915Z,99222.19
2022-11-23T01:22:02.555Z,99222.13
2022-11-23T01:22:24.245Z,99225.63
2022-11-23T01:22:45.851Z,99221.06
2022-11-23T01:23:07.421Z,99221.16
2022-11-23T01:23:30.143Z,99220.94
2022-11-23T01:23:52.200Z,99219.88
2022-11-23T01:24:16.775Z,99221.59
2022-11-23T01:24:39.370Z,99217.78
2022-11-23T01:25:04.745Z,99217.69
2022-11-23T01:25:26.385Z,99222.06
2022-11-23T01:25:50.895Z,99231.66
2022-11-23T01:26:17.876Z,99222.81
2022-11-23T01:26:39.808Z,99234.97
2022-11-23T01:27:01.406Z,99229.47
2022-11-23T01:27:23.562Z,99229.53
2022-11-23T01:27:46.569Z,99231.34
2022-11-23T01:28:10.523Z,99230.63
2022-11-23T01:28:32.127Z,99226.97
2022-11-23T01:28:53.705Z,99231.56
2022-11-23T01:29:19.657Z,99227.75
2022-11-23T01:29:41.293Z,99229.34
2022-11-23T01:30:03.138Z,99239.16
2022-11-23T01:30:27.260Z,99231.16
2022-11-23T01:30:49.873Z,99227.75
2022-11-23T01:31:14.034Z,99226.88
2022-11-23T01:31:35.778Z,99228.50
2022-11-23T01:31:57.357Z,99229.34
2022-11-23T01:32:19.979Z,99228.59
2022-11-23T01:32:41.603Z,99233.84
2022-11-23T01:33:03.830Z,99231.25
2022-11-23T01:33:25.392Z,99226.16
2022-11-23T01:33:48.784Z,99227.13
2022-11-23T01:34:11.687Z,99225.41
2022-11-23T01:35:09.514Z,99232.59
2022-11-23T01:35:32.303Z,99235.81
2022-11-23T01:35:53.908Z,99235.72
2022-11-23T01:36:17.450Z,99236.88
2022-11-23T01:36:40.018Z,99221.75
2022-11-23T01:37:01.664Z,99229.19
2022-11-23T01:37:23.248Z,99229.19
2022-11-23T01:37:46.402Z,99230.78
2022-11-23T01:38:16.670Z,99228.91
2022-11-23T01:38:39.823Z,99235.47
2022-11-23T01:39:03.815Z,99237.19
2022-11-23T01:39:25.529Z,99229.94
2022-11-23T01:39:48.262Z,99231.00
2022-11-23T01:40:12.118Z,99236.25
2022-11-23T01:40:40.158Z,99221.22
2022-11-23T01:41:01.819Z,99232.41
2022-11-23T01:41:25.148Z,99230.63
2022-11-23T01:41:46.898Z,99229.84
2022-11-23T01:42:11.824Z,99229.00
2022-11-23T01:42:43.299Z,99232.22
2022-11-23T01:43:07.092Z,99233.06
2022-11-23T01:43:30.024Z,99231.34
2022-11-23T01:43:53.081Z,99234.00
2022-11-23T01:44:26.519Z,99225.94
2022-11-23T01:44:48.907Z,99233.84
2022-11-23T01:45:34.454Z,99231.47
2022-11-23T01:45:57.338Z,99230.31
2022-11-23T01:46:19.396Z,99222.41
2022-11-23T01:46:42.016Z,99232.97
2022-11-23T01:47:05.949Z,99224.00
2022-11-23T01:47:28.028Z,99228.50
2022-11-23T01:47:49.637Z,99236.38
2022-11-23T01:48:16.612Z,99233.84
2022-11-23T01:48:43.267Z,99226.16
2022-11-23T01:49:07.610Z,99233.84
2022-11-23T01:49:33.623Z,99229.53
2022-11-23T01:49:55.891Z,99229.19
2022-11-23T01:50:17.615Z,99229.00
2022-11-23T01:50:40.970Z,99232.28
2022-11-23T01:51:04.924Z,99232.13
2022-11-23T01:51:30.495Z,99235.53
2022-11-23T01:51:56.804Z,99231.06
2022-11-23T01:52:23.776Z,99215.59
2022-11-23T01:52:45.430Z,99234.28
2022-11-23T01:53:07.086Z,99235.13
2022-11-23T01:53:30.040Z,99237.72
2022-11-23T01:53:58.367Z,99230.44
2022-11-23T01:54:24.639Z,99238.44
2022-11-23T01:54:49.246Z,99244.44
2022-11-23T01:55:11.087Z,99235.91
2022-11-23T01:55:33.317Z,99241.97
2022-11-23T01:56:00.208Z,99235.44
2022-11-23T01:56:28.656Z,99242.19
2022-11-23T01:56:53.766Z,99238.66
2022-11-23T01:57:21.015Z,99242.19
2022-11-23T01:57:45.526Z,99240.38
2022-11-23T01:58:09.080Z,99240.38
2022-11-23T01:58:36.147Z,99233.97
2022-11-23T01:59:05.355Z,99236.63
2022-11-23T01:59:28.656Z,99238.34
2022-11-23T02:00:15.166Z,99234.75
2022-11-23T02:00:38.747Z,99229.63
2022-11-23T02:01:03.250Z,99246.16
2022-11-23T02:01:24.963Z,99236.34
2022-11-23T02:01:46.654Z,99238.06
2022-11-23T02:02:08.383Z,99241.38
2022-11-23T02:02:33.687Z,99239.56
2022-11-23T02:02:58.474Z,99237.31
2022-11-23T02:03:20.162Z,99236.34
2022-11-23T02:03:43.490Z,99226.19
2022-11-23T02:04:09.510Z,99231.53
2022-11-23T02:04:33.944Z,99236.06
2022-11-23T02:04:57.533Z,99243.34
2022-11-23T02:05:22.308Z,99244.94
2022-11-23T02:05:47.638Z,99236.50
2022-11-23T02:06:13.685Z,99226.22
2022-11-23T02:06:35.382Z,99240.56
2022-11-23T02:07:00.623Z,99249.31
2022-11-23T02:07:24.012Z,99245.59
2022-11-23T02:07:48.016Z,99239.59
2022-11-23T02:08:11.710Z,99235.72
2022-11-23T02:08:34.382Z,99246.28
2022-11-23T02:08:58.551Z,99246.19
2022-11-23T02:09:22.570Z,99240.00
2022-11-23T02:09:46.603Z,99240.19
2022-11-23T02:10:09.018Z,99244.97
2022-11-23T02:10:32.590Z,99246.69
2022-11-23T02:10:55.723Z,99245.63
2022-11-23T02:11:19.831Z,99235.16
2022-11-23T02:11:42.998Z,99239.34
2022-11-23T02:12:12.391Z,99244.38
2022-11-23T02:12:34.125Z,99242.47
2022-11-23T02:12:55.849Z,99244.19
2022-11-23T02:13:17.623Z,99247.59
2022-11-23T02:13:44.778Z,99240.66
2022-11-23T02:14:07.430Z,99251.03
2022-11-23T02:14:29.288Z,99245.50
2022-11-23T02:14:51.051Z,99248.06
2022-11-23T02:15:14.204Z,99247.28
2022-11-23T02:15:37.500Z,99242.09
2022-11-23T02:15:59.588Z,99243.78
2022-11-23T02:16:21.147Z,99245.88
2022-11-23T02:16:42.806Z,99243.72
2022-11-23T02:17:05.052Z,99248.84
2022-11-23T02:17:27.617Z,99247.81
2022-11-23T02:17:49.302Z,99247.81
2022-11-23T02:18:15.782Z,99248.97
2022-11-23T02:18:41.483Z,99248.97
2022-11-23T02:19:09.466Z,99245.22
2022-11-23T02:19:41.635Z,99243.44
2022-11-23T02:20:08.632Z,99245.06
2022-11-23T02:20:31.839Z,99247.50
2022-11-23T02:20:54.344Z,99242.81
2022-11-23T02:21:16.200Z,99235.66
2022-11-23T02:21:43.131Z,99256.06
2022-11-23T02:22:13.543Z,99260.31
2022-11-23T02:22:42.180Z,99247.97
2022-11-23T02:23:16.387Z,99255.72
2022-11-23T02:23:47.445Z,99251.91
2022-11-23T02:24:15.446Z,99250.94
2022-11-23T02:24:45.393Z,99250.22
2022-11-23T02:25:13.451Z,99258.94
2022-11-23T02:25:44.442Z,99253.50
2022-11-23T02:26:10.455Z,99247.44
2022-11-23T02:26:35.636Z,99250.84
2022-11-23T02:27:01.925Z,99254.28
2022-11-23T02:27:23.998Z,99252.38
2022-11-23T02:27:47.207Z,99247.88
2022-11-23T02:28:10.174Z,99250.25
2022-11-23T02:28:38.786Z,99253.03
2022-11-23T02:29:05.855Z,99248.75
2022-11-23T02:29:28.822Z,99249.34
2022-11-23T02:29:58.925Z,99249.34
2022-11-23T02:30:20.615Z,99254.66
2022-11-23T02:30:44.464Z,99252.94
2022-11-23T02:31:06.042Z,99250.22
2022-11-23T02:31:28.666Z,99254.50
2022-11-23T02:31:50.562Z,99248.81
2022-11-23T02:32:12.542Z,99247.56
2022-11-23T02:32:34.754Z,99247.44
2022-11-23T02:32:57.927Z,99246.50
2022-11-23T02:33:20.052Z,99250.59
2022-11-23T02:33:43.284Z,99250.88
2022-11-23T02:34:05.814Z,99253.47
2022-11-23T02:34:28.531Z,99244.63
2022-11-23T02:34:50.247Z,99252.22
2022-11-23T02:35:12.355Z,99244.78
2022-11-23T02:35:35.725Z,99251.38
2022-11-23T02:35:59.057Z,99254.19
2022-11-23T02:36:39.091Z,99245.56
2022-11-23T02:37:02.283Z,99248.31
2022-11-23T02:37:25.446Z,99253.34
2022-11-23T02:37:48.985Z,99247.94
2022-11-23T02:38:11.367Z,99250.31
2022-11-23T02:38:34.037Z,99246.50
2022-11-23T02:39:00.610Z,99256.28
2022-11-23T02:39:30.395Z,99251.44
2022-11-23T02:39:54.382Z,99252.31
2022-11-23T02:40:25.910Z,99257.72
2022-11-23T02:40:48.850Z,99259.06
2022-11-23T02:41:11.789Z,99255.25
2022-11-23T02:41:35.882Z,99246.03
2022-11-23T02:41:58.471Z,99247.34
2022-11-23T02:42:21.463Z,99252.22
2022-11-23T02:42:44.712Z,99254.75
2022-11-23T02:43:06.342Z,99251.06
2022-11-23T02:43:27.998Z,99254.38
2022-11-23T02:43:54.912Z,99258.84
2022-11-23T02:44:37.359Z,99258.53
2022-11-23T02:45:08.685Z,99252.28
2022-11-23T02:45:37.829Z,99263.69
2022-11-23T02:46:03.433Z,99254.06
2022-11-23T02:46:25.979Z,99250.66
2022-11-23T02:46:47.993Z,99256.66
2022-11-23T02:47:11.034Z,99252.19
2022-11-23T02:47:33.666Z,99255.59
2022-11-23T02:47:56.591Z,99260.72
2022-11-23T02:48:19.248Z,99251.03
2022-11-23T02:48:40.822Z,99258.16
2022-11-23T02:49:02.427Z,99256.28
2022-11-23T02:49:24.028Z,99259.66
2022-11-23T02:49:49.299Z,99255.19
2022-11-23T02:50:10.867Z,99253.41
2022-11-23T02:50:32.945Z,99255.97
2022-11-23T02:50:55.592Z,99260.44
2022-11-23T02:51:19.960Z,99261.19
2022-11-23T02:51:41.592Z,99255.97
2022-11-23T02:52:04.122Z,99258.63
2022-11-23T02:52:25.738Z,99259.31
2022-11-23T02:52:48.251Z,99258.38
2022-11-23T02:53:11.010Z,99255.59
2022-11-23T02:53:32.907Z,99253.13
2022-11-23T02:53:54.509Z,99260.25
2022-11-23T02:54:17.082Z,99255.72
2022-11-23T02:54:38.756Z,99248.66
2022-11-23T02:55:00.313Z,99253.88
2022-11-23T02:55:21.924Z,99252.75
2022-11-23T02:55:44.530Z,99252.63
2022-11-23T02:56:06.406Z,99256.34
2022-11-23T02:56:29.387Z,99256.34
2022-11-23T02:56:50.975Z,99255.28
2022-11-23T02:57:14.679Z,99258.06
2022-11-23T02:57:40.169Z,99254.56
2022-11-23T02:58:06.065Z,99249.31
2022-11-23T02:58:28.646Z,99251.88
2022-11-23T02:58:50.239Z,99255.41
2022-11-23T02:59:12.860Z,99250.09
2022-11-23T02:59:37.943Z,99249.88
2022-11-23T03:00:02.025Z,99249.09
2022-11-23T03:00:24.534Z,99259.75
2022-11-23T03:00:46.203Z,99256.91
2022-11-23T03:01:07.918Z,99259.66
2022-11-23T03:01:30.883Z,99255.41
2022-11-23T03:01:52.671Z,99255.19
2022-11-23T03:02:14.304Z,99255.19
2022-11-23T03:02:35.962Z,99250.81
2022-11-23T03:02:59.783Z,99251.75
2022-11-23T03:03:21.351Z,99254.25
2022-11-23T03:03:42.918Z,99262.16
2022-11-23T03:04:04.726Z,99256.16
2022-11-23T03:04:28.135Z,99259.75
2022-11-23T03:04:50.913Z,99261.38
2022-11-23T03:05:15.040Z,99258.81
2022-11-23T03:05:36.870Z,99257.22
2022-11-23T03:06:01.563Z,99255.16
2022-11-23T03:06:23.236Z,99259.19
2022-11-23T03:06:45.056Z,99247.16
2022-11-23T03:07:07.714Z,99256.09
2022-11-23T03:07:29.957Z,99258.09
2022-11-23T03:07:54.538Z,99256.19
2022-11-23T03:08:16.163Z,99253.44
2022-11-23T03:08:37.760Z,99258.94
2022-11-23T03:08:59.331Z,99263.22
2022-11-23T03:09:21.070Z,99253.44
2022-11-23T03:09:43.667Z,99260.25
2022-11-23T03:10:06.484Z,99258.53
2022-11-23T03:10:28.185Z,99261.78
2022-11-23T03:10:50.607Z,99249.59
2022-11-23T03:11:14.007Z,99260.72
2022-11-23T03:11:37.330Z,99266.06
2022-11-23T03:11:58.927Z,99258.25
2022-11-23T03:12:22.572Z,99262.63
2022-11-23T03:12:45.199Z,99258.94
2022-11-23T03:13:08.554Z,99255.41
2022-11-23T03:13:32.302Z,99255.19
2022-11-23T03:13:55.529Z,99258.81
2022-11-23T03:14:18.672Z,99256.06
2022-11-23T03:14:48.085Z,99257.94
2022-11-23T03:15:10.448Z,99256.34
2022-11-23T03:15:36.572Z,99262.63
2022-11-23T03:15:59.843Z,99261.03
2022-11-23T03:16:22.270Z,99263.69
2022-11-23T03:16:43.891Z,99258.16
2022-11-23T03:17:06.745Z,99259.09
2022-11-23T03:17:33.057Z,99256.28
2022-11-23T03:17:56.805Z,99262.72
2022-11-23T03:18:18.555Z,99262.06
2022-11-23T03:18:41.249Z,99251.72
2022-11-23T03:19:04.187Z,99255.31
2022-11-23T03:19:26.896Z,99258.75
2022-11-23T03:19:48.911Z,99257.03
2022-11-23T03:20:12.494Z,99263.13
2022-11-23T03:20:37.635Z,99258.53
2022-11-23T03:21:02.688Z,99248.97
2022-11-23T03:21:24.275Z,99253.22
2022-11-23T03:21:46.882Z,99259.41
2022-11-23T03:22:08.715Z,99261.13
2022-11-23T03:22:30.413Z,99260.25
2022-11-23T03:22:52.235Z,99259.50
2022-11-23T03:23:16.446Z,99256.66
2022-11-23T03:23:38.987Z,99256.53
2022-11-23T03:24:02.582Z,99263.50
2022-11-23T03:24:24.193Z,99259.88
2022-11-23T03:24:47.365Z,99257.94
2022-11-23T03:25:12.276Z,99259.75
2022-11-23T03:25:34.667Z,99254.34
2022-11-23T03:25:56.894Z,99256.44
2022-11-23T03:26:19.574Z,99254.63
2022-11-23T03:26:51.181Z,99253.69
2022-11-23T03:27:15.795Z,99249.41
2022-11-23T03:27:38.756Z,99260.19
2022-11-23T03:28:00.446Z,99258.53
2022-11-23T03:28:22.593Z,99259.50
2022-11-23T03:28:45.517Z,99255.97
2022-11-23T03:29:08.091Z,99254.84
2022-11-23T03:29:30.244Z,99256.34
2022-11-23T03:29:54.299Z,99256.44
2022-11-23T03:30:17.248Z,99264.44
2022-11-23T03:30:38.890Z,99255.50
2022-11-23T03:31:01.727Z,99252.28
2022-11-23T03:31:23.502Z,99256.66
2022-11-23T03:31:45.194Z,99255.59
2022-11-23T03:32:10.563Z,99251.22
2022-11-23T03:32:33.071Z,99259.19
2022-11-23T03:32:54.711Z,99256.34
2022-11-23T03:33:16.591Z,99261.69
2022-11-23T03:33:39.535Z,99258.38
2022-11-23T03:34:01.259Z,99257.50
2022-11-23T03:34:25.626Z,99254.06
2022-11-23T03:34:47.267Z,99257.31
2022-11-23T03:35:11.480Z,99264.44
2022-11-23T03:35:48.690Z,99261.84
2022-11-23T03:36:20.607Z,99256.75
2022-11-23T03:36:44.131Z,99268.34
2022-11-23T03:37:05.734Z,99266.44
2022-11-23T03:37:27.426Z,99270.06
2022-11-23T03:37:50.025Z,99256.66
2022-11-23T03:38:11.874Z,99265.50
2022-11-23T03:38:33.515Z,99261.50
2022-11-23T03:38:55.335Z,99266.28
2022-11-23T03:39:34.464Z,99269.72
2022-11-23T03:40:06.242Z,99261.50
2022-11-23T03:40:46.580Z,99257.91
2022-11-23T03:41:18.734Z,99268.63
2022-11-23T03:41:45.617Z,99269.50
2022-11-23T03:42:09.094Z,99272.16
2022-11-23T03:42:32.046Z,99265.53
2022-11-23T03:42:53.692Z,99271.81
2022-11-23T03:43:16.260Z,99260.47
2022-11-23T03:43:37.880Z,99269.31
2022-11-23T03:43:59.683Z,99268.28
2022-11-23T03:44:23.062Z,99266.34
2022-11-23T03:44:44.738Z,99266.47
2022-11-23T03:45:07.899Z,99261.25
2022-11-23T03:45:29.554Z,99267.22
2022-11-23T03:45:51.395Z,99262.66
2022-11-23T03:46:14.307Z,99265.25
2022-11-23T03:46:35.906Z,99266.84
2022-11-23T03:46:57.563Z,99262.28
2022-11-23T03:47:19.991Z,99255.88
2022-11-23T03:47:42.641Z,99266.38
2022-11-23T03:48:04.362Z,99255.03
2022-11-23T03:48:25.986Z,99260.19
2022-11-23T03:48:47.809Z,99261.78
2022-11-23T03:49:10.482Z,99261.78
2022-11-23T03:49:32.397Z,99252.91
2022-11-23T03:49:54.411Z,99263.50
2022-11-23T03:50:16.092Z,99249.53
2022-11-23T03:50:38.704Z,99260.72
2022-11-23T03:51:00.307Z,99256.66
2022-11-23T03:51:22.983Z,99270.72
2022-11-23T03:51:44.673Z,99265.38
2022-11-23T03:52:06.302Z,99268.91
2022-11-23T03:52:28.881Z,99258.16
2022-11-23T03:52:50.703Z,99260.63
2022-11-23T03:53:12.763Z,99257.00
2022-11-23T03:53:34.819Z,99263.09
2022-11-23T03:53:56.443Z,99262.16
2022-11-23T03:54:19.051Z,99263.84
2022-11-23T03:54:40.723Z,99265.66
2022-11-23T03:55:02.385Z,99263.75
2022-11-23T03:55:24.078Z,99263.97
2022-11-23T03:55:48.189Z,99267.34
2022-11-23T03:56:10.743Z,99261.47
2022-11-23T03:56:36.733Z,99264.13
2022-11-23T03:56:58.647Z,99253.47
2022-11-23T03:57:22.580Z,99261.47
2022-11-23T03:57:44.232Z,99261.59
2022-11-23T03:58:05.957Z,99262.41
2022-11-23T03:58:30.298Z,99265.09
2022-11-23T03:58:53.578Z,99262.34
2022-11-23T03:59:15.198Z,99256.91
2022-11-23T03:59:37.123Z,99268.22
2022-11-23T03:59:59.438Z,99260.22
2022-11-23T04:00:21.798Z,99254.25
2022-11-23T04:00:44.728Z,99265.84
2022-11-23T04:01:09.112Z,99253.69
2022-11-23T04:01:31.445Z,99259.75
2022-11-23T04:01:57.446Z,99259.75
2022-11-23T04:02:23.487Z,99262.41
2022-11-23T04:02:55.613Z,99265.09
2022-11-23T04:03:56.642Z,99257.69
2022-11-23T04:04:44.058Z,99249.13
2022-11-23T04:05:44.611Z,99250.00
2022-11-23T04:06:24.525Z,99258.47
2022-11-23T04:06:55.746Z,99259.97
2022-11-23T04:07:22.672Z,99258.25
2022-11-23T04:07:49.569Z,99255.50
2022-11-23T04:08:11.282Z,99260.19
2022-11-23T04:08:32.967Z,99264.34
2022-11-23T04:09:01.519Z,99252.38
2022-11-23T04:09:43.946Z,99269.66
2022-11-23T04:10:19.759Z,99259.88
2022-11-23T04:11:01.616Z,99269.97
2022-11-23T04:11:31.610Z,99268.34
2022-11-23T04:11:54.245Z,99264.16
2022-11-23T04:12:15.877Z,99269.19
2022-11-23T04:12:39.470Z,99268.84
2022-11-23T04:13:02.724Z,99268.84
2022-11-23T04:13:26.309Z,99267.69
2022-11-23T04:13:48.156Z,99263.97
2022-11-23T04:14:09.836Z,99265.50
2022-11-23T04:14:31.514Z,99269.84
2022-11-23T04:14:55.548Z,99270.53
2022-11-23T04:15:17.319Z,99267.19
2022-11-23T04:15:39.059Z,99265.94
2022-11-23T04:16:00.648Z,99266.81
2022-11-23T04:16:23.197Z,99268.81
2022-11-23T04:16:45.091Z,99270.22
2022-11-23T04:17:06.803Z,99267.56
2022-11-23T04:17:28.425Z,99263.09
2022-11-23T04:17:50.319Z,99262.16
2022-11-23T04:18:12.929Z,99270.22
2022-11-23T04:18:34.780Z,99273.84
2022-11-23T04:18:56.461Z,99265.75
2022-11-23T04:19:18.089Z,99267.00
2022-11-23T04:19:40.682Z,99268.81
2022-11-23T04:20:03.461Z,99266.06
2022-11-23T04:20:25.297Z,99268.59
2022-11-23T04:20:46.882Z,99272.13
2022-11-23T04:21:08.522Z,99271.28
2022-11-23T04:21:31.139Z,99274.22
2022-11-23T04:21:53.199Z,99266.06
2022-11-23T04:22:15.933Z,99265.00
2022-11-23T04:22:38.478Z,99262.94
2022-11-23T04:23:00.405Z,99260.34
2022-11-23T04:23:25.028Z,99258.53
2022-11-23T04:23:46.729Z,99259.50
2022-11-23T04:24:09.814Z,99257.69
2022-11-23T04:24:33.483Z,99259.31
2022-11-23T04:24:58.656Z,99259.41
2022-11-23T04:25:20.553Z,99266.44
2022-11-23T04:25:45.133Z,99260.06
2022-11-23T04:26:08.490Z,99262.63
2022-11-23T04:26:33.742Z,99259.19
2022-11-23T04:26:56.415Z,99262.44
2022-11-23T04:27:19.381Z,99260.47
2022-11-23T04:27:43.245Z,99264.81
2022-11-23T04:28:04.891Z,99261.97
2022-11-23T04:28:26.517Z,99266.44
2022-11-23T04:28:48.343Z,99272.16
2022-11-23T04:29:11.312Z,99269.41
2022-11-23T04:29:36.435Z,99263.97
2022-11-23T04:29:58.006Z,99271.13
2022-11-23T04:30:19.800Z,99268.34
2022-11-23T04:30:42.455Z,99264.72
2022-11-23T04:31:04.750Z,99268.56
2022-11-23T04:31:35.482Z,99269.19
2022-11-23T04:32:05.946Z,99261.41
2022-11-23T04:32:28.128Z,99266.53
2022-11-23T04:32:49.842Z,99270.84
2022-11-23T04:33:11.495Z,99275.28
2022-11-23T04:33:34.808Z,99268.00
2022-11-23T04:33:56.763Z,99273.88
2022-11-23T04:34:20.111Z,99269.28
2022-11-23T04:34:43.831Z,99268.16
2022-11-23T04:35:08.143Z,99269.75
2022-11-23T04:35:31.535Z,99274.16
2022-11-23T04:35:53.473Z,99264.25
2022-11-23T04:36:15.275Z,99263.41
2022-11-23T04:36:37.552Z,99269.59
2022-11-23T04:37:01.378Z,99261.69
2022-11-23T04:37:28.988Z,99267.00
2022-11-23T04:37:50.836Z,99265.22
2022-11-23T04:38:13.634Z,99270.31